sensor_id;sensor_type;location;lat;lon;timestamp;P1;durP1;ratioP1;P2;durP2;ratioP2
13552;SDS011;6847;48.830;9.116;2023-06-14T00:02:14;0.10;;;0.10;;
13552;SDS011;6847;48.830;9.116;2023-06-14T00:04:41;0.10;;;0.10;;
13552;SDS011;6847;48.830;9.116;2023-06-14T00:07:13;0.10;;;0.10;;
13552;SDS011;6847;48.830;9.116;2023-06-14T00:09:43;0.20;;;0.20;;
13552;SDS011;6847;48.830;9.116;2023-06-14T00:12:11;0.10;;;0.10;;
13552;SDS011;6847;48.830;9.116;2023-06-14T00:14:37;0.10;;;0.10;;
13552;SDS011;6847;48.830;9.116;2023-06-14T00:17:05;0.10;;;0.10;;
13552;SDS011;6847;48.830;9.116;2023-06-14T00:19:32;0.10;;;0.10;;
13552;SDS011;6847;48.830;9.116;2023-06-14T00:22:00;0.10;;;0.10;;
13552;SDS011;6847;48.830;9.116;2023-06-14T00:24:30;0.10;;;0.10;;
13552;SDS011;6847;48.830;9.116;2023-06-14T00:27:02;0.10;;;0.10;;
13552;SDS011;6847;48.830;9.116;2023-06-14T00:29:29;0.10;;;0.10;;
13552;SDS011;6847;48.830;9.116;2023-06-14T00:31:56;0.10;;;0.10;;
13552;SDS011;6847;48.830;9.116;2023-06-14T00:34:24;0.10;;;0.10;;
13552;SDS011;6847;48.830;9.116;2023-06-14T00:36:53;0.10;;;0.10;;
13552;SDS011;6847;48.830;9.116;2023-06-14T00:39:23;0.10;;;0.10;;
13552;SDS011;6847;48.830;9.116;2023-06-14T00:41:50;0.10;;;0.10;;
13552;SDS011;6847;48.830;9.116;2023-06-14T00:44:24;0.10;;;0.10;;
13552;SDS011;6847;48.830;9.116;2023-06-14T00:46:51;0.10;;;0.10;;
13552;SDS011;6847;48.830;9.116;2023-06-14T00:49:22;0.10;;;0.10;;
13552;SDS011;6847;48.830;9.116;2023-06-14T00:51:55;0.10;;;0.10;;
13552;SDS011;6847;48.830;9.116;2023-06-14T00:54:22;0.00;;;0.00;;
13552;SDS011;6847;48.830;9.116;2023-06-14T00:56:49;0.10;;;0.10;;
13552;SDS011;6847;48.830;9.116;2023-06-14T00:59:15;0.10;;;0.10;;
13552;SDS011;6847;48.830;9.116;2023-06-14T01:01:45;0.10;;;0.10;;
13552;SDS011;6847;48.830;9.116;2023-06-14T01:04:14;0.08;;;0.08;;
13552;SDS011;6847;48.830;9.116;2023-06-14T01:06:44;0.20;;;0.20;;
13552;SDS011;6847;48.830;9.116;2023-06-14T01:09:18;0.10;;;0.10;;
13552;SDS011;6847;48.830;9.116;2023-06-14T01:11:54;0.10;;;0.10;;
13552;SDS011;6847;48.830;9.116;2023-06-14T01:14:25;0.10;;;0.10;;
13552;SDS011;6847;48.830;9.116;2023-06-14T01:16:58;0.10;;;0.10;;
13552;SDS011;6847;48.830;9.116;2023-06-14T01:19:28;0.10;;;0.10;;
13552;SDS011;6847;48.830;9.116;2023-06-14T01:21:56;0.10;;;0.10;;
13552;SDS011;6847;48.830;9.116;2023-06-14T01:24:28;0.10;;;0.10;;
13552;SDS011;6847;48.830;9.116;2023-06-14T01:26:58;0.10;;;0.10;;
13552;SDS011;6847;48.830;9.116;2023-06-14T01:29:27;0.10;;;0.10;;
13552;SDS011;6847;48.830;9.116;2023-06-14T01:31:59;0.10;;;0.10;;
13552;SDS011;6847;48.830;9.116;2023-06-14T01:34:28;0.10;;;0.10;;
13552;SDS011;6847;48.830;9.116;2023-06-14T01:36:55;0.10;;;0.10;;
13552;SDS011;6847;48.830;9.116;2023-06-14T01:39:22;0.00;;;0.00;;
13552;SDS011;6847;48.830;9.116;2023-06-14T01:41:51;0.10;;;0.10;;
13552;SDS011;6847;48.830;9.116;2023-06-14T01:44:18;0.00;;;0.00;;
13552;SDS011;6847;48.830;9.116;2023-06-14T01:46:47;0.00;;;0.00;;
13552;SDS011;6847;48.830;9.116;2023-06-14T01:49:15;0.10;;;0.10;;
13552;SDS011;6847;48.830;9.116;2023-06-14T01:51:44;0.10;;;0.10;;
13552;SDS011;6847;48.830;9.116;2023-06-14T01:54:10;0.00;;;0.00;;
13552;SDS011;6847;48.830;9.116;2023-06-14T01:56:40;0.03;;;0.03;;
13552;SDS011;6847;48.830;9.116;2023-06-14T01:59:10;0.10;;;0.10;;
13552;SDS011;6847;48.830;9.116;2023-06-14T02:01:37;0.10;;;0.10;;
13552;SDS011;6847;48.830;9.116;2023-06-14T02:04:05;0.10;;;0.10;;
13552;SDS011;6847;48.830;9.116;2023-06-14T02:06:33;0.10;;;0.10;;
13552;SDS011;6847;48.830;9.116;2023-06-14T02:09:00;0.10;;;0.10;;
13552;SDS011;6847;48.830;9.116;2023-06-14T02:11:29;1.35;;;0.47;;
13552;SDS011;6847;48.830;9.116;2023-06-14T02:13:57;0.10;;;0.10;;
13552;SDS011;6847;48.830;9.116;2023-06-14T02:16:26;0.10;;;0.10;;
13552;SDS011;6847;48.830;9.116;2023-06-14T02:18:55;0.00;;;0.00;;
13552;SDS011;6847;48.830;9.116;2023-06-14T02:21:22;0.10;;;0.10;;
13552;SDS011;6847;48.830;9.116;2023-06-14T02:23:48;0.10;;;0.10;;
13552;SDS011;6847;48.830;9.116;2023-06-14T02:26:15;0.10;;;0.10;;
13552;SDS011;6847;48.830;9.116;2023-06-14T02:28:42;0.10;;;0.10;;
13552;SDS011;6847;48.830;9.116;2023-06-14T02:31:09;0.00;;;0.00;;
13552;SDS011;6847;48.830;9.116;2023-06-14T02:33:40;0.00;;;0.00;;
13552;SDS011;6847;48.830;9.116;2023-06-14T02:36:08;0.00;;;0.00;;
13552;SDS011;6847;48.830;9.116;2023-06-14T02:38:34;0.10;;;0.10;;
13552;SDS011;6847;48.830;9.116;2023-06-14T02:41:01;0.10;;;0.10;;
13552;SDS011;6847;48.830;9.116;2023-06-14T02:43:29;0.00;;;0.00;;
13552;SDS011;6847;48.830;9.116;2023-06-14T02:45:59;0.10;;;0.10;;
13552;SDS011;6847;48.830;9.116;2023-06-14T02:48:27;0.00;;;0.00;;
13552;SDS011;6847;48.830;9.116;2023-06-14T02:50:55;0.10;;;0.10;;
13552;SDS011;6847;48.830;9.116;2023-06-14T02:53:23;0.00;;;0.00;;
13552;SDS011;6847;48.830;9.116;2023-06-14T02:55:50;0.00;;;0.00;;
13552;SDS011;6847;48.830;9.116;2023-06-14T02:58:17;0.10;;;0.10;;
13552;SDS011;6847;48.830;9.116;2023-06-14T03:00:44;0.00;;;0.00;;
13552;SDS011;6847;48.830;9.116;2023-06-14T03:03:12;0.10;;;0.10;;
13552;SDS011;6847;48.830;9.116;2023-06-14T03:05:43;0.10;;;0.10;;
13552;SDS011;6847;48.830;9.116;2023-06-14T03:08:16;0.10;;;0.10;;
13552;SDS011;6847;48.830;9.116;2023-06-14T03:10:45;0.00;;;0.00;;
13552;SDS011;6847;48.830;9.116;2023-06-14T03:13:16;0.10;;;0.10;;
13552;SDS011;6847;48.830;9.116;2023-06-14T03:15:46;0.10;;;0.10;;
13552;SDS011;6847;48.830;9.116;2023-06-14T03:18:15;0.00;;;0.00;;
13552;SDS011;6847;48.830;9.116;2023-06-14T03:20:42;0.00;;;0.00;;
13552;SDS011;6847;48.830;9.116;2023-06-14T03:23:10;0.00;;;0.00;;
13552;SDS011;6847;48.830;9.116;2023-06-14T03:25:39;0.10;;;0.10;;
13552;SDS011;6847;48.830;9.116;2023-06-14T03:28:07;0.10;;;0.10;;
13552;SDS011;6847;48.830;9.116;2023-06-14T03:30:34;0.00;;;0.00;;
13552;SDS011;6847;48.830;9.116;2023-06-14T03:33:02;0.10;;;0.10;;
13552;SDS011;6847;48.830;9.116;2023-06-14T03:35:29;0.00;;;0.00;;
13552;SDS011;6847;48.830;9.116;2023-06-14T03:38:06;0.10;;;0.10;;
13552;SDS011;6847;48.830;9.116;2023-06-14T03:40:34;0.10;;;0.10;;
13552;SDS011;6847;48.830;9.116;2023-06-14T03:43:02;0.10;;;0.10;;
13552;SDS011;6847;48.830;9.116;2023-06-14T03:45:31;0.00;;;0.00;;
13552;SDS011;6847;48.830;9.116;2023-06-14T03:48:00;0.10;;;0.10;;
13552;SDS011;6847;48.830;9.116;2023-06-14T03:50:27;0.10;;;0.10;;
13552;SDS011;6847;48.830;9.116;2023-06-14T03:52:54;0.10;;;0.10;;
13552;SDS011;6847;48.830;9.116;2023-06-14T03:55:22;0.10;;;0.10;;
13552;SDS011;6847;48.830;9.116;2023-06-14T03:57:50;0.00;;;0.00;;
13552;SDS011;6847;48.830;9.116;2023-06-14T04:00:20;0.10;;;0.10;;
13552;SDS011;6847;48.830;9.116;2023-06-14T04:02:48;0.00;;;0.00;;
13552;SDS011;6847;48.830;9.116;2023-06-14T04:05:14;0.10;;;0.10;;
13552;SDS011;6847;48.830;9.116;2023-06-14T04:07:44;0.00;;;0.00;;
13552;SDS011;6847;48.830;9.116;2023-06-14T04:10:11;0.10;;;0.10;;
13552;SDS011;6847;48.830;9.116;2023-06-14T04:12:38;0.00;;;0.00;;
13552;SDS011;6847;48.830;9.116;2023-06-14T04:15:05;0.00;;;0.00;;
13552;SDS011;6847;48.830;9.116;2023-06-14T04:17:39;0.05;;;0.05;;
13552;SDS011;6847;48.830;9.116;2023-06-14T04:20:07;0.10;;;0.10;;
13552;SDS011;6847;48.830;9.116;2023-06-14T04:22:38;0.10;;;0.10;;
13552;SDS011;6847;48.830;9.116;2023-06-14T04:25:08;0.00;;;0.00;;
13552;SDS011;6847;48.830;9.116;2023-06-14T04:27:34;0.00;;;0.00;;
13552;SDS011;6847;48.830;9.116;2023-06-14T04:30:03;0.10;;;0.10;;
13552;SDS011;6847;48.830;9.116;2023-06-14T04:32:39;0.10;;;0.10;;
13552;SDS011;6847;48.830;9.116;2023-06-14T04:35:08;0.00;;;0.00;;
13552;SDS011;6847;48.830;9.116;2023-06-14T04:37:37;0.00;;;0.00;;
13552;SDS011;6847;48.830;9.116;2023-06-14T04:40:12;0.10;;;0.10;;
13552;SDS011;6847;48.830;9.116;2023-06-14T04:42:53;0.00;;;0.00;;
13552;SDS011;6847;48.830;9.116;2023-06-14T04:45:20;0.10;;;0.10;;
13552;SDS011;6847;48.830;9.116;2023-06-14T04:47:50;0.10;;;0.10;;
13552;SDS011;6847;48.830;9.116;2023-06-14T04:50:22;0.10;;;0.10;;
13552;SDS011;6847;48.830;9.116;2023-06-14T04:52:52;0.10;;;0.10;;
13552;SDS011;6847;48.830;9.116;2023-06-14T04:55:20;0.10;;;0.10;;
13552;SDS011;6847;48.830;9.116;2023-06-14T04:57:47;0.10;;;0.10;;
13552;SDS011;6847;48.830;9.116;2023-06-14T05:00:14;0.00;;;0.00;;
13552;SDS011;6847;48.830;9.116;2023-06-14T05:02:42;0.10;;;0.10;;
13552;SDS011;6847;48.830;9.116;2023-06-14T05:05:10;0.10;;;0.10;;
13552;SDS011;6847;48.830;9.116;2023-06-14T05:07:36;0.10;;;0.10;;
13552;SDS011;6847;48.830;9.116;2023-06-14T05:10:05;0.10;;;0.10;;
13552;SDS011;6847;48.830;9.116;2023-06-14T05:12:35;0.10;;;0.10;;
13552;SDS011;6847;48.830;9.116;2023-06-14T05:15:01;0.10;;;0.10;;
13552;SDS011;6847;48.830;9.116;2023-06-14T05:17:28;0.10;;;0.10;;
13552;SDS011;6847;48.830;9.116;2023-06-14T05:19:56;0.10;;;0.10;;
13552;SDS011;6847;48.830;9.116;2023-06-14T05:22:25;0.10;;;0.10;;
13552;SDS011;6847;48.830;9.116;2023-06-14T05:24:52;0.00;;;0.00;;
13552;SDS011;6847;48.830;9.116;2023-06-14T05:27:19;0.10;;;0.10;;
13552;SDS011;6847;48.830;9.116;2023-06-14T05:29:45;0.10;;;0.10;;
13552;SDS011;6847;48.830;9.116;2023-06-14T05:32:12;0.10;;;0.10;;
13552;SDS011;6847;48.830;9.116;2023-06-14T05:34:38;0.10;;;0.10;;
13552;SDS011;6847;48.830;9.116;2023-06-14T05:37:06;0.10;;;0.10;;
13552;SDS011;6847;48.830;9.116;2023-06-14T05:39:34;0.10;;;0.10;;
13552;SDS011;6847;48.830;9.116;2023-06-14T05:42:00;0.10;;;0.10;;
13552;SDS011;6847;48.830;9.116;2023-06-14T05:44:27;0.10;;;0.10;;
13552;SDS011;6847;48.830;9.116;2023-06-14T05:46:53;0.10;;;0.10;;
13552;SDS011;6847;48.830;9.116;2023-06-14T05:49:20;0.10;;;0.10;;
13552;SDS011;6847;48.830;9.116;2023-06-14T05:51:46;0.10;;;0.10;;
13552;SDS011;6847;48.830;9.116;2023-06-14T05:54:14;0.10;;;0.10;;
13552;SDS011;6847;48.830;9.116;2023-06-14T05:56:41;0.10;;;0.10;;
13552;SDS011;6847;48.830;9.116;2023-06-14T05:59:10;0.10;;;0.10;;
13552;SDS011;6847;48.830;9.116;2023-06-14T06:01:37;0.10;;;0.10;;
13552;SDS011;6847;48.830;9.116;2023-06-14T06:04:05;0.10;;;0.10;;
13552;SDS011;6847;48.830;9.116;2023-06-14T06:06:33;0.10;;;0.10;;
13552;SDS011;6847;48.830;9.116;2023-06-14T06:09:00;0.10;;;0.10;;
13552;SDS011;6847;48.830;9.116;2023-06-14T06:11:29;0.10;;;0.10;;
13552;SDS011;6847;48.830;9.116;2023-06-14T06:14:00;0.10;;;0.10;;
13552;SDS011;6847;48.830;9.116;2023-06-14T06:16:27;0.10;;;0.10;;
13552;SDS011;6847;48.830;9.116;2023-06-14T06:21:52;0.10;;;0.10;;
13552;SDS011;6847;48.830;9.116;2023-06-14T06:24:19;0.10;;;0.10;;
13552;SDS011;6847;48.830;9.116;2023-06-14T06:26:47;0.10;;;0.10;;
13552;SDS011;6847;48.830;9.116;2023-06-14T06:29:21;0.10;;;0.10;;
13552;SDS011;6847;48.830;9.116;2023-06-14T06:31:50;0.10;;;0.10;;
13552;SDS011;6847;48.830;9.116;2023-06-14T06:34:19;0.10;;;0.10;;
13552;SDS011;6847;48.830;9.116;2023-06-14T06:36:45;0.10;;;0.10;;
13552;SDS011;6847;48.830;9.116;2023-06-14T06:39:14;0.10;;;0.10;;
13552;SDS011;6847;48.830;9.116;2023-06-14T06:41:44;0.10;;;0.10;;
13552;SDS011;6847;48.830;9.116;2023-06-14T06:44:12;0.10;;;0.10;;
13552;SDS011;6847;48.830;9.116;2023-06-14T06:46:41;0.10;;;0.10;;
13552;SDS011;6847;48.830;9.116;2023-06-14T06:49:08;0.10;;;0.10;;
13552;SDS011;6847;48.830;9.116;2023-06-14T06:51:36;0.17;;;0.10;;
13552;SDS011;6847;48.830;9.116;2023-06-14T06:54:03;0.10;;;0.10;;
13552;SDS011;6847;48.830;9.116;2023-06-14T06:56:31;0.10;;;0.10;;
13552;SDS011;6847;48.830;9.116;2023-06-14T06:58:57;0.10;;;0.10;;
13552;SDS011;6847;48.830;9.116;2023-06-14T07:01:28;0.10;;;0.10;;
13552;SDS011;6847;48.830;9.116;2023-06-14T07:03:58;0.10;;;0.10;;
13552;SDS011;6847;48.830;9.116;2023-06-14T07:06:25;0.15;;;0.15;;
13552;SDS011;6847;48.830;9.116;2023-06-14T07:08:52;0.10;;;0.10;;
13552;SDS011;6847;48.830;9.116;2023-06-14T07:11:19;0.10;;;0.10;;
13552;SDS011;6847;48.830;9.116;2023-06-14T07:13:48;0.10;;;0.10;;
13552;SDS011;6847;48.830;9.116;2023-06-14T07:16:15;0.10;;;0.10;;
13552;SDS011;6847;48.830;9.116;2023-06-14T07:18:47;0.10;;;0.10;;
13552;SDS011;6847;48.830;9.116;2023-06-14T07:21:16;0.10;;;0.10;;
13552;SDS011;6847;48.830;9.116;2023-06-14T07:23:43;0.10;;;0.10;;
13552;SDS011;6847;48.830;9.116;2023-06-14T07:26:13;0.20;;;0.20;;
13552;SDS011;6847;48.830;9.116;2023-06-14T07:28:40;0.10;;;0.10;;
13552;SDS011;6847;48.830;9.116;2023-06-14T07:31:10;0.10;;;0.10;;
13552;SDS011;6847;48.830;9.116;2023-06-14T07:33:38;0.10;;;0.10;;
13552;SDS011;6847;48.830;9.116;2023-06-14T07:36:06;0.10;;;0.10;;
13552;SDS011;6847;48.830;9.116;2023-06-14T07:38:37;0.10;;;0.10;;
13552;SDS011;6847;48.830;9.116;2023-06-14T07:41:05;0.17;;;0.17;;
13552;SDS011;6847;48.830;9.116;2023-06-14T07:43:33;0.20;;;0.20;;
13552;SDS011;6847;48.830;9.116;2023-06-14T07:46:00;0.10;;;0.10;;
13552;SDS011;6847;48.830;9.116;2023-06-14T07:48:27;0.10;;;0.10;;
13552;SDS011;6847;48.830;9.116;2023-06-14T07:50:54;0.10;;;0.10;;
13552;SDS011;6847;48.830;9.116;2023-06-14T07:53:20;0.10;;;0.10;;
13552;SDS011;6847;48.830;9.116;2023-06-14T07:55:52;0.20;;;0.20;;
13552;SDS011;6847;48.830;9.116;2023-06-14T07:58:19;0.20;;;0.20;;
13552;SDS011;6847;48.830;9.116;2023-06-14T08:00:48;0.32;;;0.30;;
13552;SDS011;6847;48.830;9.116;2023-06-14T08:03:16;0.20;;;0.20;;
13552;SDS011;6847;48.830;9.116;2023-06-14T08:05:44;0.20;;;0.20;;
13552;SDS011;6847;48.830;9.116;2023-06-14T08:08:11;0.10;;;0.10;;
13552;SDS011;6847;48.830;9.116;2023-06-14T08:10:40;0.15;;;0.15;;
13552;SDS011;6847;48.830;9.116;2023-06-14T08:13:11;0.10;;;0.10;;
13552;SDS011;6847;48.830;9.116;2023-06-14T08:15:41;0.10;;;0.10;;
13552;SDS011;6847;48.830;9.116;2023-06-14T08:18:09;0.10;;;0.10;;
13552;SDS011;6847;48.830;9.116;2023-06-14T08:20:35;0.20;;;0.20;;
13552;SDS011;6847;48.830;9.116;2023-06-14T08:23:03;0.10;;;0.10;;
13552;SDS011;6847;48.830;9.116;2023-06-14T08:25:35;0.20;;;0.20;;
13552;SDS011;6847;48.830;9.116;2023-06-14T08:28:01;0.10;;;0.10;;
13552;SDS011;6847;48.830;9.116;2023-06-14T08:30:29;0.20;;;0.20;;
13552;SDS011;6847;48.830;9.116;2023-06-14T08:32:55;0.10;;;0.10;;
13552;SDS011;6847;48.830;9.116;2023-06-14T08:35:22;0.10;;;0.10;;
13552;SDS011;6847;48.830;9.116;2023-06-14T08:37:49;0.63;;;0.63;;
13552;SDS011;6847;48.830;9.116;2023-06-14T08:40:19;0.10;;;0.10;;
13552;SDS011;6847;48.830;9.116;2023-06-14T08:42:48;0.10;;;0.10;;
13552;SDS011;6847;48.830;9.116;2023-06-14T08:45:19;0.20;;;0.20;;
13552;SDS011;6847;48.830;9.116;2023-06-14T08:47:49;0.10;;;0.10;;
13552;SDS011;6847;48.830;9.116;2023-06-14T08:50:19;0.20;;;0.20;;
13552;SDS011;6847;48.830;9.116;2023-06-14T08:52:50;0.13;;;0.13;;
13552;SDS011;6847;48.830;9.116;2023-06-14T08:55:22;0.20;;;0.20;;
13552;SDS011;6847;48.830;9.116;2023-06-14T08:57:52;0.30;;;0.30;;
13552;SDS011;6847;48.830;9.116;2023-06-14T09:00:21;0.20;;;0.20;;
13552;SDS011;6847;48.830;9.116;2023-06-14T09:02:50;0.17;;;0.17;;
13552;SDS011;6847;48.830;9.116;2023-06-14T09:05:22;0.20;;;0.20;;
13552;SDS011;6847;48.830;9.116;2023-06-14T09:07:50;0.20;;;0.20;;
13552;SDS011;6847;48.830;9.116;2023-06-14T09:10:20;0.10;;;0.10;;
13552;SDS011;6847;48.830;9.116;2023-06-14T09:12:48;0.28;;;0.28;;
13552;SDS011;6847;48.830;9.116;2023-06-14T09:15:14;0.20;;;0.20;;
13552;SDS011;6847;48.830;9.116;2023-06-14T09:17:58;0.20;;;0.20;;
13552;SDS011;6847;48.830;9.116;2023-06-14T09:20:28;0.10;;;0.10;;
13552;SDS011;6847;48.830;9.116;2023-06-14T09:23:05;0.30;;;0.30;;
13552;SDS011;6847;48.830;9.116;2023-06-14T09:25:32;0.20;;;0.20;;
13552;SDS011;6847;48.830;9.116;2023-06-14T09:27:59;0.25;;;0.25;;
13552;SDS011;6847;48.830;9.116;2023-06-14T09:30:25;0.20;;;0.20;;
13552;SDS011;6847;48.830;9.116;2023-06-14T09:32:52;0.20;;;0.20;;
13552;SDS011;6847;48.830;9.116;2023-06-14T09:35:20;0.30;;;0.30;;
13552;SDS011;6847;48.830;9.116;2023-06-14T09:37:47;0.20;;;0.20;;
13552;SDS011;6847;48.830;9.116;2023-06-14T09:40:13;0.20;;;0.20;;
13552;SDS011;6847;48.830;9.116;2023-06-14T09:42:46;0.20;;;0.20;;
13552;SDS011;6847;48.830;9.116;2023-06-14T09:45:14;0.20;;;0.20;;
13552;SDS011;6847;48.830;9.116;2023-06-14T09:47:44;0.20;;;0.20;;
13552;SDS011;6847;48.830;9.116;2023-06-14T09:50:12;0.30;;;0.30;;
13552;SDS011;6847;48.830;9.116;2023-06-14T09:52:43;0.30;;;0.30;;
13552;SDS011;6847;48.830;9.116;2023-06-14T09:55:11;0.30;;;0.30;;
13552;SDS011;6847;48.830;9.116;2023-06-14T09:57:40;0.20;;;0.20;;
13552;SDS011;6847;48.830;9.116;2023-06-14T10:00:09;0.20;;;0.20;;
13552;SDS011;6847;48.830;9.116;2023-06-14T10:02:40;0.20;;;0.20;;
13552;SDS011;6847;48.830;9.116;2023-06-14T10:05:15;0.20;;;0.20;;
13552;SDS011;6847;48.830;9.116;2023-06-14T10:07:59;0.20;;;0.20;;
13552;SDS011;6847;48.830;9.116;2023-06-14T10:10:30;0.20;;;0.20;;
13552;SDS011;6847;48.830;9.116;2023-06-14T10:12:58;0.20;;;0.20;;
13552;SDS011;6847;48.830;9.116;2023-06-14T10:15:27;0.30;;;0.30;;
13552;SDS011;6847;48.830;9.116;2023-06-14T10:18:01;0.20;;;0.20;;
13552;SDS011;6847;48.830;9.116;2023-06-14T10:20:35;0.20;;;0.20;;
13552;SDS011;6847;48.830;9.116;2023-06-14T10:25:39;0.20;;;0.20;;
13552;SDS011;6847;48.830;9.116;2023-06-14T10:28:16;0.57;;;0.57;;
13552;SDS011;6847;48.830;9.116;2023-06-14T10:31:04;0.30;;;0.30;;
13552;SDS011;6847;48.830;9.116;2023-06-14T10:33:32;0.30;;;0.30;;
13552;SDS011;6847;48.830;9.116;2023-06-14T10:36:07;0.20;;;0.20;;
13552;SDS011;6847;48.830;9.116;2023-06-14T10:39:04;0.22;;;0.20;;
13552;SDS011;6847;48.830;9.116;2023-06-14T10:41:34;0.30;;;0.30;;
13552;SDS011;6847;48.830;9.116;2023-06-14T10:44:12;0.20;;;0.20;;
13552;SDS011;6847;48.830;9.116;2023-06-14T10:47:06;0.20;;;0.20;;
13552;SDS011;6847;48.830;9.116;2023-06-14T10:49:38;0.20;;;0.20;;
13552;SDS011;6847;48.830;9.116;2023-06-14T10:52:08;0.20;;;0.20;;
13552;SDS011;6847;48.830;9.116;2023-06-14T10:57:38;0.10;;;0.10;;
13552;SDS011;6847;48.830;9.116;2023-06-14T11:00:06;0.20;;;0.20;;
13552;SDS011;6847;48.830;9.116;2023-06-14T11:06:06;0.20;;;0.20;;
13552;SDS011;6847;48.830;9.116;2023-06-14T11:08:56;0.20;;;0.20;;
13552;SDS011;6847;48.830;9.116;2023-06-14T11:11:41;0.20;;;0.20;;
13552;SDS011;6847;48.830;9.116;2023-06-14T11:14:09;0.35;;;0.35;;
13552;SDS011;6847;48.830;9.116;2023-06-14T11:16:36;0.30;;;0.30;;
13552;SDS011;6847;48.830;9.116;2023-06-14T11:19:03;0.20;;;0.20;;
13552;SDS011;6847;48.830;9.116;2023-06-14T11:21:32;0.20;;;0.20;;
13552;SDS011;6847;48.830;9.116;2023-06-14T11:24:09;0.20;;;0.20;;
13552;SDS011;6847;48.830;9.116;2023-06-14T11:26:40;0.20;;;0.20;;
13552;SDS011;6847;48.830;9.116;2023-06-14T11:29:17;0.15;;;0.15;;
13552;SDS011;6847;48.830;9.116;2023-06-14T11:31:46;0.13;;;0.13;;
13552;SDS011;6847;48.830;9.116;2023-06-14T11:34:21;0.20;;;0.20;;
13552;SDS011;6847;48.830;9.116;2023-06-14T11:36:48;0.10;;;0.10;;
13552;SDS011;6847;48.830;9.116;2023-06-14T11:39:14;0.20;;;0.20;;
13552;SDS011;6847;48.830;9.116;2023-06-14T11:41:44;0.20;;;0.20;;
13552;SDS011;6847;48.830;9.116;2023-06-14T11:44:12;0.20;;;0.20;;
13552;SDS011;6847;48.830;9.116;2023-06-14T11:46:40;0.28;;;0.28;;
13552;SDS011;6847;48.830;9.116;2023-06-14T11:49:06;0.20;;;0.20;;
13552;SDS011;6847;48.830;9.116;2023-06-14T11:51:35;0.30;;;0.30;;
13552;SDS011;6847;48.830;9.116;2023-06-14T11:54:04;0.20;;;0.20;;
13552;SDS011;6847;48.830;9.116;2023-06-14T11:56:32;0.20;;;0.20;;
13552;SDS011;6847;48.830;9.116;2023-06-14T11:59:01;0.20;;;0.20;;
13552;SDS011;6847;48.830;9.116;2023-06-14T12:01:36;0.20;;;0.20;;
13552;SDS011;6847;48.830;9.116;2023-06-14T12:04:13;0.20;;;0.20;;
13552;SDS011;6847;48.830;9.116;2023-06-14T12:06:40;0.20;;;0.20;;
13552;SDS011;6847;48.830;9.116;2023-06-14T12:09:20;0.20;;;0.20;;
13552;SDS011;6847;48.830;9.116;2023-06-14T12:11:51;0.20;;;0.20;;
13552;SDS011;6847;48.830;9.116;2023-06-14T12:14:29;0.25;;;0.25;;
13552;SDS011;6847;48.830;9.116;2023-06-14T12:17:03;0.40;;;0.40;;
13552;SDS011;6847;48.830;9.116;2023-06-14T12:19:40;0.20;;;0.20;;
13552;SDS011;6847;48.830;9.116;2023-06-14T12:22:09;0.28;;;0.28;;
13552;SDS011;6847;48.830;9.116;2023-06-14T12:24:36;0.20;;;0.20;;
13552;SDS011;6847;48.830;9.116;2023-06-14T12:27:03;0.28;;;0.28;;
13552;SDS011;6847;48.830;9.116;2023-06-14T12:29:32;0.20;;;0.20;;
13552;SDS011;6847;48.830;9.116;2023-06-14T12:32:02;0.20;;;0.20;;
13552;SDS011;6847;48.830;9.116;2023-06-14T12:34:28;0.20;;;0.20;;
13552;SDS011;6847;48.830;9.116;2023-06-14T12:36:59;0.30;;;0.30;;
13552;SDS011;6847;48.830;9.116;2023-06-14T12:39:25;0.20;;;0.20;;
13552;SDS011;6847;48.830;9.116;2023-06-14T12:41:56;0.38;;;0.38;;
13552;SDS011;6847;48.830;9.116;2023-06-14T12:44:23;0.30;;;0.30;;
13552;SDS011;6847;48.830;9.116;2023-06-14T12:46:51;0.30;;;0.30;;
13552;SDS011;6847;48.830;9.116;2023-06-14T12:49:19;0.30;;;0.30;;
13552;SDS011;6847;48.830;9.116;2023-06-14T12:51:46;0.25;;;0.25;;
13552;SDS011;6847;48.830;9.116;2023-06-14T12:54:16;0.30;;;0.30;;
13552;SDS011;6847;48.830;9.116;2023-06-14T12:56:43;0.28;;;0.28;;
13552;SDS011;6847;48.830;9.116;2023-06-14T12:59:09;0.40;;;0.40;;
13552;SDS011;6847;48.830;9.116;2023-06-14T13:01:37;0.30;;;0.30;;
13552;SDS011;6847;48.830;9.116;2023-06-14T13:04:09;0.50;;;0.50;;
13552;SDS011;6847;48.830;9.116;2023-06-14T13:06:36;0.30;;;0.30;;
13552;SDS011;6847;48.830;9.116;2023-06-14T13:09:02;0.40;;;0.40;;
13552;SDS011;6847;48.830;9.116;2023-06-14T13:11:30;0.30;;;0.30;;
13552;SDS011;6847;48.830;9.116;2023-06-14T13:13:56;0.30;;;0.30;;
13552;SDS011;6847;48.830;9.116;2023-06-14T13:16:23;0.35;;;0.35;;
13552;SDS011;6847;48.830;9.116;2023-06-14T13:18:50;0.40;;;0.40;;
13552;SDS011;6847;48.830;9.116;2023-06-14T13:21:17;0.30;;;0.30;;
13552;SDS011;6847;48.830;9.116;2023-06-14T13:23:44;0.30;;;0.30;;
13552;SDS011;6847;48.830;9.116;2023-06-14T13:26:14;0.20;;;0.20;;
13552;SDS011;6847;48.830;9.116;2023-06-14T13:28:43;0.30;;;0.30;;
13552;SDS011;6847;48.830;9.116;2023-06-14T13:31:10;0.22;;;0.22;;
13552;SDS011;6847;48.830;9.116;2023-06-14T13:33:36;0.30;;;0.30;;
13552;SDS011;6847;48.830;9.116;2023-06-14T13:36:03;0.20;;;0.20;;
13552;SDS011;6847;48.830;9.116;2023-06-14T13:38:32;0.30;;;0.30;;
13552;SDS011;6847;48.830;9.116;2023-06-14T13:40:58;0.20;;;0.20;;
13552;SDS011;6847;48.830;9.116;2023-06-14T13:43:27;0.20;;;0.20;;
13552;SDS011;6847;48.830;9.116;2023-06-14T13:45:55;0.50;;;0.50;;
13552;SDS011;6847;48.830;9.116;2023-06-14T13:48:24;0.20;;;0.20;;
13552;SDS011;6847;48.830;9.116;2023-06-14T13:50:50;0.20;;;0.20;;
13552;SDS011;6847;48.830;9.116;2023-06-14T13:53:39;0.22;;;0.22;;
13552;SDS011;6847;48.830;9.116;2023-06-14T13:56:14;0.20;;;0.20;;
13552;SDS011;6847;48.830;9.116;2023-06-14T13:58:41;0.20;;;0.20;;
13552;SDS011;6847;48.830;9.116;2023-06-14T14:01:07;0.30;;;0.30;;
13552;SDS011;6847;48.830;9.116;2023-06-14T14:03:34;0.20;;;0.20;;
13552;SDS011;6847;48.830;9.116;2023-06-14T14:06:01;0.32;;;0.32;;
13552;SDS011;6847;48.830;9.116;2023-06-14T14:08:28;0.40;;;0.40;;
13552;SDS011;6847;48.830;9.116;2023-06-14T14:10:55;0.30;;;0.30;;
13552;SDS011;6847;48.830;9.116;2023-06-14T14:14:00;0.30;;;0.30;;
13552;SDS011;6847;48.830;9.116;2023-06-14T14:17:06;0.55;;;0.55;;
13552;SDS011;6847;48.830;9.116;2023-06-14T14:20:14;0.40;;;0.40;;
13552;SDS011;6847;48.830;9.116;2023-06-14T14:23:22;0.30;;;0.30;;
13552;SDS011;6847;48.830;9.116;2023-06-14T14:26:31;0.40;;;0.40;;
13552;SDS011;6847;48.830;9.116;2023-06-14T14:29:38;0.30;;;0.30;;
13552;SDS011;6847;48.830;9.116;2023-06-14T14:32:45;0.30;;;0.30;;
13552;SDS011;6847;48.830;9.116;2023-06-14T14:35:53;0.30;;;0.30;;
13552;SDS011;6847;48.830;9.116;2023-06-14T14:39:01;0.40;;;0.40;;
13552;SDS011;6847;48.830;9.116;2023-06-14T14:42:10;0.60;;;0.60;;
13552;SDS011;6847;48.830;9.116;2023-06-14T14:45:18;0.32;;;0.32;;
13552;SDS011;6847;48.830;9.116;2023-06-14T14:48:27;0.30;;;0.30;;
13552;SDS011;6847;48.830;9.116;2023-06-14T14:51:39;0.43;;;0.43;;
13552;SDS011;6847;48.830;9.116;2023-06-14T14:54:49;0.40;;;0.40;;
13552;SDS011;6847;48.830;9.116;2023-06-14T14:58:01;0.40;;;0.40;;
13552;SDS011;6847;48.830;9.116;2023-06-14T15:01:09;0.40;;;0.40;;
13552;SDS011;6847;48.830;9.116;2023-06-14T15:04:18;0.40;;;0.40;;
13552;SDS011;6847;48.830;9.116;2023-06-14T15:07:26;0.40;;;0.40;;
13552;SDS011;6847;48.830;9.116;2023-06-14T15:09:54;0.30;;;0.30;;
13552;SDS011;6847;48.830;9.116;2023-06-14T15:12:21;0.43;;;0.43;;
13552;SDS011;6847;48.830;9.116;2023-06-14T15:14:53;0.40;;;0.40;;
13552;SDS011;6847;48.830;9.116;2023-06-14T15:17:58;0.40;;;0.40;;
13552;SDS011;6847;48.830;9.116;2023-06-14T15:20:25;0.40;;;0.40;;
13552;SDS011;6847;48.830;9.116;2023-06-14T15:22:51;0.30;;;0.30;;
13552;SDS011;6847;48.830;9.116;2023-06-14T15:25:26;0.38;;;0.38;;
13552;SDS011;6847;48.830;9.116;2023-06-14T15:27:53;0.40;;;0.40;;
13552;SDS011;6847;48.830;9.116;2023-06-14T15:30:40;0.40;;;0.40;;
13552;SDS011;6847;48.830;9.116;2023-06-14T15:33:07;0.30;;;0.30;;
13552;SDS011;6847;48.830;9.116;2023-06-14T15:35:33;0.30;;;0.30;;
13552;SDS011;6847;48.830;9.116;2023-06-14T15:38:02;0.40;;;0.40;;